createdAt,value
2018-09-23T00:00:29.236Z,12.30
2018-09-23T00:01:32.563Z,12.30
2018-09-23T00:02:35.874Z,12.20
2018-09-23T00:03:39.249Z,12.30
2018-09-23T00:04:42.583Z,12.30
2018-09-23T00:05:45.907Z,12.30
2018-09-23T00:06:49.229Z,12.30
2018-09-23T00:07:52.551Z,12.30
2018-09-23T00:08:55.931Z,12.30
2018-09-23T00:09:59.244Z,12.40
2018-09-23T00:11:02.631Z,12.30
2018-09-23T00:12:05.979Z,12.30
2018-09-23T00:13:09.373Z,12.40
2018-09-23T00:14:12.739Z,12.40
2018-09-23T00:15:16.094Z,12.40
2018-09-23T00:16:19.407Z,12.40
2018-09-23T00:17:22.713Z,12.40
2018-09-23T00:18:26.026Z,12.40
2018-09-23T00:19:29.373Z,12.40
2018-09-23T00:20:32.747Z,12.30
2018-09-23T00:21:36.111Z,12.30
2018-09-23T00:22:39.483Z,12.30
2018-09-23T00:23:42.808Z,12.30
2018-09-23T00:24:46.146Z,12.30
2018-09-23T00:25:49.492Z,12.30
2018-09-23T00:26:52.814Z,12.30
2018-09-23T00:27:56.166Z,12.40
2018-09-23T00:28:59.501Z,12.40
2018-09-23T00:30:02.876Z,12.40
2018-09-23T00:31:06.191Z,12.40
2018-09-23T00:32:09.548Z,12.40
2018-09-23T00:33:12.861Z,12.40
2018-09-23T00:34:16.183Z,12.40
2018-09-23T00:35:19.504Z,12.40
2018-09-23T00:36:22.828Z,12.40
2018-09-23T00:37:26.212Z,12.30
2018-09-23T00:38:29.566Z,12.30
2018-09-23T00:39:32.979Z,12.30
2018-09-23T00:40:36.346Z,12.30
2018-09-23T00:41:39.674Z,12.30
2018-09-23T00:42:43.003Z,12.30
2018-09-23T00:43:46.325Z,12.30
2018-09-23T00:44:49.669Z,12.30
2018-09-23T00:45:53.026Z,12.40
2018-09-23T00:46:56.347Z,12.40
2018-09-23T00:47:59.659Z,12.40
2018-09-23T00:49:02.975Z,12.40
2018-09-23T00:50:06.474Z,12.30
2018-09-23T00:51:09.823Z,12.30
2018-09-23T00:52:13.143Z,12.30
2018-09-23T00:53:16.494Z,12.30
2018-09-23T00:54:19.807Z,12.30
2018-09-23T00:55:23.179Z,12.30
2018-09-23T00:56:26.540Z,12.30
2018-09-23T00:57:29.923Z,12.30
2018-09-23T00:58:33.238Z,12.20
2018-09-23T00:59:36.611Z,12.20
2018-09-23T01:00:39.995Z,12.20
2018-09-23T01:01:43.350Z,12.20
2018-09-23T01:02:46.698Z,12.20
2018-09-23T01:03:50.051Z,12.20
2018-09-23T01:04:53.363Z,12.20
2018-09-23T01:05:56.689Z,12.20
2018-09-23T01:07:00.043Z,12.20
2018-09-23T01:08:03.403Z,12.10
2018-09-23T01:09:08.405Z,12.10
2018-09-23T01:10:11.728Z,12.10
2018-09-23T01:11:15.067Z,12.10
2018-09-23T01:12:18.372Z,12.10
2018-09-23T01:13:25.700Z,12.10
2018-09-23T01:14:29.043Z,12.10
2018-09-23T01:15:32.407Z,12.10
2018-09-23T01:16:35.762Z,12.10
2018-09-23T01:17:39.066Z,12.00
2018-09-23T01:18:42.429Z,12.00
2018-09-23T01:19:45.755Z,12.00
2018-09-23T01:20:49.124Z,12.00
2018-09-23T01:21:52.439Z,12.00
2018-09-23T01:22:55.759Z,12.00
2018-09-23T01:23:59.128Z,12.10
2018-09-23T01:25:02.495Z,12.10
2018-09-23T01:26:05.920Z,12.10
2018-09-23T01:27:09.234Z,12.10
2018-09-23T01:28:12.552Z,12.00
2018-09-23T01:29:15.855Z,12.00
2018-09-23T01:30:19.197Z,12.10
2018-09-23T01:31:22.572Z,12.00
2018-09-23T01:32:25.896Z,12.10
2018-09-23T01:33:29.230Z,12.10
2018-09-23T01:34:32.531Z,12.10
2018-09-23T01:35:35.862Z,12.10
2018-09-23T01:36:39.172Z,12.10
2018-09-23T01:37:42.490Z,12.10
2018-09-23T01:38:45.798Z,12.10
2018-09-23T01:39:49.126Z,12.00
2018-09-23T01:40:52.503Z,12.00
2018-09-23T01:41:55.826Z,12.10
2018-09-23T01:42:59.197Z,12.10
2018-09-23T01:44:02.566Z,12.10
2018-09-23T01:45:06.159Z,12.10
2018-09-23T01:46:09.549Z,12.10
2018-09-23T01:47:13.024Z,12.10
2018-09-23T01:48:16.367Z,12.20
2018-09-23T01:49:19.675Z,12.10
2018-09-23T01:50:22.987Z,12.10
2018-09-23T01:51:26.344Z,12.10
2018-09-23T01:52:29.663Z,12.20
2018-09-23T01:53:33.037Z,12.20
2018-09-23T01:54:36.368Z,12.10
2018-09-23T01:55:39.680Z,12.20
2018-09-23T01:56:43.019Z,12.20
2018-09-23T01:57:46.335Z,12.10
2018-09-23T01:58:49.699Z,12.10
2018-09-23T01:59:53.023Z,12.00
2018-09-23T02:00:56.364Z,12.10
2018-09-23T02:01:59.707Z,12.10
2018-09-23T02:03:03.032Z,12.10
2018-09-23T02:04:06.387Z,12.10
2018-09-23T02:05:09.747Z,12.10
2018-09-23T02:06:13.071Z,12.10
2018-09-23T02:07:16.390Z,12.10
2018-09-23T02:08:19.707Z,12.10
2018-09-23T02:09:23.054Z,12.10
2018-09-23T02:10:26.362Z,12.10
2018-09-23T02:11:29.696Z,12.10
2018-09-23T02:12:33.067Z,12.10
2018-09-23T02:13:36.451Z,12.00
2018-09-23T02:14:39.820Z,12.00
2018-09-23T02:15:43.137Z,12.00
2018-09-23T02:16:46.471Z,12.00
2018-09-23T02:17:49.791Z,12.00
2018-09-23T02:18:53.115Z,12.00
2018-09-23T02:19:56.478Z,12.00
2018-09-23T02:20:59.983Z,12.00
2018-09-23T02:22:03.303Z,12.00
2018-09-23T02:23:06.801Z,12.00
2018-09-23T02:24:10.111Z,12.00
2018-09-23T02:25:13.436Z,12.00
2018-09-23T02:26:16.760Z,12.00
2018-09-23T02:27:20.075Z,12.00
2018-09-23T02:28:23.431Z,12.00
2018-09-23T02:29:26.823Z,12.00
2018-09-23T02:30:30.179Z,11.90
2018-09-23T02:31:33.498Z,11.90
2018-09-23T02:32:36.921Z,11.90
2018-09-23T02:33:40.252Z,11.90
2018-09-23T02:34:43.580Z,11.90
2018-09-23T02:35:46.907Z,11.90
2018-09-23T02:36:50.268Z,11.90
2018-09-23T02:37:54.643Z,12.00
2018-09-23T02:38:57.966Z,11.90
2018-09-23T02:40:01.283Z,11.90
2018-09-23T02:41:04.657Z,11.80
2018-09-23T02:42:07.988Z,11.80
2018-09-23T02:43:11.303Z,11.90
2018-09-23T02:44:14.657Z,11.90
2018-09-23T02:45:17.967Z,11.90
2018-09-23T02:46:21.290Z,11.90
2018-09-23T02:47:24.641Z,11.90
2018-09-23T02:48:27.960Z,11.90
2018-09-23T02:49:31.318Z,11.90
2018-09-23T02:50:34.646Z,12.00
2018-09-23T02:51:37.972Z,11.90
2018-09-23T02:52:41.275Z,11.90
2018-09-23T02:53:44.596Z,12.00
2018-09-23T02:54:48.029Z,12.00
2018-09-23T02:55:51.354Z,12.00
2018-09-23T02:56:54.686Z,12.00
2018-09-23T02:57:57.991Z,12.00
2018-09-23T02:59:01.437Z,12.00
2018-09-23T03:00:05.663Z,11.90
2018-09-23T03:01:08.986Z,11.90
2018-09-23T03:02:12.331Z,11.90
2018-09-23T03:03:15.676Z,11.90
2018-09-23T03:04:18.989Z,11.90
2018-09-23T03:05:22.347Z,11.90
2018-09-23T03:06:25.684Z,11.80
2018-09-23T03:07:28.992Z,11.80
2018-09-23T03:08:32.410Z,11.80
2018-09-23T03:09:35.727Z,11.80
2018-09-23T03:10:39.039Z,11.80
2018-09-23T03:11:42.495Z,11.80
2018-09-23T03:12:45.812Z,11.90
2018-09-23T03:13:49.166Z,11.90
2018-09-23T03:14:52.486Z,11.90
2018-09-23T03:15:55.819Z,11.90
2018-09-23T03:16:59.136Z,11.90
2018-09-23T03:18:02.461Z,11.90
2018-09-23T03:19:05.811Z,11.90
2018-09-23T03:20:09.155Z,11.90
2018-09-23T03:21:12.471Z,11.90
2018-09-23T03:22:15.823Z,11.90
2018-09-23T03:23:19.204Z,11.90
2018-09-23T03:24:22.565Z,11.90
2018-09-23T03:25:25.912Z,11.90
2018-09-23T03:26:29.219Z,11.90
2018-09-23T03:27:32.525Z,11.80
2018-09-23T03:28:35.839Z,11.80
2018-09-23T03:29:39.239Z,11.80
2018-09-23T03:30:42.542Z,11.80
2018-09-23T03:31:45.864Z,11.80
2018-09-23T03:32:49.191Z,11.90
2018-09-23T03:33:52.517Z,11.90
2018-09-23T03:34:55.873Z,11.90
2018-09-23T03:35:59.178Z,12.00
2018-09-23T03:37:02.571Z,12.00
2018-09-23T03:38:05.910Z,12.00
2018-09-23T03:39:09.355Z,12.00
2018-09-23T03:40:12.705Z,12.00
2018-09-23T03:41:16.055Z,12.00
2018-09-23T03:42:19.479Z,12.00
2018-09-23T03:43:22.811Z,12.00
2018-09-23T03:44:26.160Z,12.00
2018-09-23T03:45:29.519Z,12.00
2018-09-23T03:46:32.834Z,12.00
2018-09-23T03:47:36.191Z,12.10
2018-09-23T03:48:39.500Z,12.10
2018-09-23T03:49:42.831Z,12.10
2018-09-23T03:50:46.215Z,12.10
2018-09-23T03:51:49.537Z,12.10
2018-09-23T03:52:53.501Z,12.10
2018-09-23T03:53:56.870Z,12.10
2018-09-23T03:55:00.190Z,12.20
2018-09-23T03:56:03.507Z,12.20
2018-09-23T03:57:06.884Z,12.20
2018-09-23T03:58:10.275Z,12.20
2018-09-23T03:59:13.724Z,12.20
2018-09-23T04:00:17.059Z,12.20
2018-09-23T04:01:20.417Z,12.20
2018-09-23T04:02:23.776Z,12.10
2018-09-23T04:03:27.117Z,12.10
2018-09-23T04:04:30.444Z,12.10
2018-09-23T04:05:33.768Z,12.20
2018-09-23T04:06:37.091Z,12.10
2018-09-23T04:07:40.439Z,12.10
2018-09-23T04:08:43.754Z,12.10
2018-09-23T04:09:47.070Z,12.10
2018-09-23T04:10:50.415Z,12.10
2018-09-23T04:11:53.741Z,12.10
2018-09-23T04:12:57.099Z,12.10
2018-09-23T04:14:00.443Z,12.20
2018-09-23T04:15:03.832Z,12.20
2018-09-23T04:16:07.149Z,12.20
2018-09-23T04:17:10.498Z,12.20
2018-09-23T04:18:13.808Z,12.10
2018-09-23T04:19:17.180Z,12.20
2018-09-23T04:20:20.482Z,12.20
2018-09-23T04:21:23.798Z,12.20
2018-09-23T04:22:27.163Z,12.20
2018-09-23T04:23:30.477Z,12.20
2018-09-23T04:24:33.830Z,12.20
2018-09-23T04:25:37.152Z,12.10
2018-09-23T04:26:40.489Z,12.10
2018-09-23T04:27:43.847Z,12.10
2018-09-23T04:28:47.183Z,12.10
2018-09-23T04:29:50.551Z,12.10
2018-09-23T04:30:53.884Z,12.10
2018-09-23T04:31:57.231Z,12.00
2018-09-23T04:33:00.548Z,12.00
2018-09-23T04:34:03.899Z,12.00
2018-09-23T04:35:07.292Z,12.10
2018-09-23T04:36:10.612Z,12.10
2018-09-23T04:37:13.930Z,12.10
2018-09-23T04:38:17.245Z,12.10
2018-09-23T04:39:20.567Z,12.20
2018-09-23T04:40:23.922Z,12.20
2018-09-23T04:41:27.279Z,12.20
2018-09-23T04:42:30.643Z,12.30
2018-09-23T04:43:33.979Z,12.30
2018-09-23T04:44:37.325Z,12.20
2018-09-23T04:45:40.652Z,12.20
2018-09-23T04:46:44.003Z,12.20
2018-09-23T04:47:47.345Z,12.20
2018-09-23T04:48:50.677Z,12.30
2018-09-23T04:49:54.001Z,12.30
2018-09-23T04:51:03.950Z,12.30
2018-09-23T04:52:07.292Z,12.20
2018-09-23T04:53:10.662Z,12.20
2018-09-23T04:54:13.987Z,12.20
2018-09-23T04:55:17.332Z,12.20
2018-09-23T04:56:20.676Z,12.20
2018-09-23T04:57:24.004Z,12.20
2018-09-23T04:58:27.330Z,12.20
2018-09-23T04:59:30.692Z,12.20
2018-09-23T05:00:34.013Z,12.10
2018-09-23T05:01:37.365Z,12.10
2018-09-23T05:02:40.691Z,12.10
2018-09-23T05:03:44.038Z,12.20
2018-09-23T05:04:47.405Z,12.10
2018-09-23T05:05:50.723Z,12.10
2018-09-23T05:06:54.049Z,12.10
2018-09-23T05:07:57.363Z,12.10
2018-09-23T05:09:00.685Z,12.10
2018-09-23T05:10:04.043Z,12.10
2018-09-23T05:11:07.354Z,12.00
2018-09-23T05:12:10.720Z,12.00
2018-09-23T05:13:14.216Z,12.00
2018-09-23T05:14:17.516Z,12.00
2018-09-23T05:15:20.868Z,12.10
2018-09-23T05:16:24.204Z,12.10
2018-09-23T05:17:27.540Z,12.10
2018-09-23T05:18:30.867Z,12.10
2018-09-23T05:19:34.208Z,12.20
2018-09-23T05:20:37.526Z,12.10
2018-09-23T05:21:40.862Z,12.10
2018-09-23T05:22:44.200Z,12.10
2018-09-23T05:23:47.514Z,12.10
2018-09-23T05:24:50.868Z,12.10
2018-09-23T05:25:54.166Z,12.10
2018-09-23T05:26:57.485Z,12.10
2018-09-23T05:28:00.819Z,12.10
2018-09-23T05:29:04.139Z,12.10
2018-09-23T05:30:07.527Z,12.10
2018-09-23T05:31:10.843Z,12.10
2018-09-23T05:32:14.135Z,12.10
2018-09-23T05:33:17.447Z,12.10
2018-09-23T05:34:20.763Z,12.10
2018-09-23T05:35:24.120Z,12.10
2018-09-23T05:36:27.432Z,12.10
2018-09-23T05:37:30.736Z,12.10
2018-09-23T05:38:34.034Z,12.10
2018-09-23T05:39:37.343Z,12.20
2018-09-23T05:40:40.676Z,12.10
2018-09-23T05:41:43.968Z,12.10
2018-09-23T05:42:47.279Z,12.10
2018-09-23T05:43:50.626Z,12.10
2018-09-23T05:44:53.951Z,12.20
2018-09-23T05:45:57.264Z,12.20
2018-09-23T05:47:00.611Z,12.20
2018-09-23T05:48:03.907Z,12.20
2018-09-23T05:49:07.627Z,12.20
2018-09-23T05:50:10.922Z,12.20
2018-09-23T05:51:14.264Z,12.20
2018-09-23T05:52:17.615Z,12.20
2018-09-23T05:53:20.930Z,12.30
2018-09-23T05:54:24.249Z,12.30
2018-09-23T05:55:27.581Z,12.20
2018-09-23T05:56:30.904Z,12.20
2018-09-23T05:57:34.216Z,12.20
2018-09-23T05:58:37.547Z,12.10
2018-09-23T05:59:40.873Z,12.20
2018-09-23T06:00:46.676Z,12.20
2018-09-23T06:01:50.016Z,12.20
2018-09-23T06:02:53.328Z,12.20
2018-09-23T06:03:56.644Z,12.20
2018-09-23T06:04:59.972Z,12.20
2018-09-23T06:06:03.348Z,12.20
2018-09-23T06:07:06.696Z,12.20
2018-09-23T06:08:09.991Z,12.20
2018-09-23T06:09:13.316Z,12.20
2018-09-23T06:10:16.623Z,12.20
2018-09-23T06:11:20.000Z,12.30
2018-09-23T06:12:23.350Z,12.30
2018-09-23T06:13:26.663Z,12.30
2018-09-23T06:14:29.979Z,12.30
2018-09-23T06:15:33.496Z,12.30
2018-09-23T06:16:36.854Z,12.30
2018-09-23T06:17:40.178Z,12.30
2018-09-23T06:18:43.524Z,12.20
2018-09-23T06:19:46.863Z,12.20
2018-09-23T06:20:50.212Z,12.20
2018-09-23T06:21:53.532Z,12.20
2018-09-23T06:22:56.859Z,12.20
2018-09-23T06:24:00.236Z,12.20
2018-09-23T06:25:03.648Z,12.20
2018-09-23T06:26:07.462Z,12.20
2018-09-23T06:27:10.788Z,12.20
2018-09-23T06:28:14.135Z,12.20
2018-09-23T06:29:17.524Z,12.20
2018-09-23T06:30:21.011Z,12.20
2018-09-23T06:31:24.335Z,12.30
2018-09-23T06:32:27.643Z,12.30
2018-09-23T06:33:31.126Z,12.20
2018-09-23T06:34:34.481Z,12.20
2018-09-23T06:35:37.795Z,12.30
2018-09-23T06:36:41.112Z,12.30
2018-09-23T06:37:44.447Z,12.30
2018-09-23T06:38:47.798Z,12.40
2018-09-23T06:39:51.134Z,12.40
2018-09-23T06:40:54.432Z,12.40
2018-09-23T06:41:57.742Z,12.50
2018-09-23T06:43:01.079Z,12.40
2018-09-23T06:44:04.446Z,12.50
2018-09-23T06:45:07.763Z,12.50
2018-09-23T06:46:11.072Z,12.50
2018-09-23T06:47:14.435Z,12.60
2018-09-23T06:48:17.749Z,12.60
2018-09-23T06:49:21.108Z,12.60
2018-09-23T06:50:24.407Z,12.50
2018-09-23T06:51:27.719Z,12.60
2018-09-23T06:52:31.033Z,12.50
2018-09-23T06:53:34.479Z,12.50
2018-09-23T06:54:37.822Z,12.50
2018-09-23T06:55:41.119Z,12.40
2018-09-23T06:56:44.462Z,12.40
2018-09-23T06:57:47.820Z,12.40
2018-09-23T06:58:51.159Z,12.40
2018-09-23T06:59:54.461Z,12.40
2018-09-23T07:00:57.773Z,12.40
2018-09-23T07:02:01.088Z,12.40
2018-09-23T07:03:04.412Z,12.40
2018-09-23T07:04:07.721Z,12.30
2018-09-23T07:05:11.030Z,12.30
2018-09-23T07:06:14.393Z,12.30
2018-09-23T07:07:17.699Z,12.40
2018-09-23T07:08:20.998Z,12.40
2018-09-23T07:09:24.319Z,12.40
2018-09-23T07:10:27.677Z,12.50
2018-09-23T07:11:30.990Z,12.40
2018-09-23T07:12:34.300Z,12.40
2018-09-23T07:13:37.627Z,12.40
2018-09-23T07:14:40.934Z,12.30
2018-09-23T07:15:44.252Z,12.40
2018-09-23T07:16:47.619Z,12.30
2018-09-23T07:17:50.979Z,12.40
2018-09-23T07:18:54.339Z,12.40
2018-09-23T07:19:57.655Z,12.40
2018-09-23T07:21:00.954Z,12.40
2018-09-23T07:22:04.268Z,12.50
2018-09-23T07:23:07.573Z,12.40
2018-09-23T07:24:10.982Z,12.50
2018-09-23T07:25:14.251Z,12.50
2018-09-23T07:26:17.573Z,12.50
2018-09-23T07:27:20.899Z,12.60
2018-09-23T07:28:24.208Z,12.60
2018-09-23T07:29:27.569Z,12.60
2018-09-23T07:30:30.887Z,12.70
2018-09-23T07:31:34.224Z,12.70
2018-09-23T07:32:37.527Z,12.70
2018-09-23T07:33:40.841Z,12.80
2018-09-23T07:34:44.139Z,12.90
2018-09-23T07:35:47.471Z,12.90
2018-09-23T07:36:50.918Z,12.90
2018-09-23T07:37:54.230Z,12.90
2018-09-23T07:38:57.575Z,13.00
2018-09-23T07:40:00.966Z,13.00
2018-09-23T07:41:04.202Z,12.90
2018-09-23T07:42:07.547Z,13.00
2018-09-23T07:43:10.835Z,13.00
2018-09-23T07:44:14.186Z,13.10
2018-09-23T07:45:17.487Z,13.10
2018-09-23T07:46:20.786Z,13.10
2018-09-23T07:47:24.091Z,13.10
2018-09-23T07:48:27.405Z,13.10
2018-09-23T07:49:30.738Z,13.10
2018-09-23T07:50:34.035Z,13.20
2018-09-23T07:51:37.612Z,13.20
2018-09-23T07:52:40.911Z,13.20
2018-09-23T07:53:44.220Z,13.20
2018-09-23T07:54:47.558Z,13.30
2018-09-23T07:55:50.855Z,13.20
2018-09-23T07:56:54.157Z,13.20
2018-09-23T07:57:57.446Z,13.20
2018-09-23T07:59:00.744Z,13.30
2018-09-23T08:00:04.111Z,13.30
2018-09-23T08:01:07.406Z,13.40
2018-09-23T08:02:10.717Z,13.40
2018-09-23T08:03:14.034Z,13.30
2018-09-23T08:04:17.336Z,13.30
2018-09-23T08:05:20.706Z,13.20
2018-09-23T08:06:24.011Z,13.30
2018-09-23T08:07:27.321Z,13.30
2018-09-23T08:08:30.658Z,13.40
2018-09-23T08:09:33.961Z,13.40
2018-09-23T08:10:37.310Z,13.40
2018-09-23T08:11:40.608Z,13.40
2018-09-23T08:12:44.000Z,13.50
2018-09-23T08:13:47.439Z,13.50
2018-09-23T08:14:50.897Z,13.60
2018-09-23T08:15:53.958Z,13.60
2018-09-23T08:16:57.267Z,13.50
2018-09-23T08:18:00.591Z,13.50
2018-09-23T08:19:03.897Z,13.60
2018-09-23T08:20:07.241Z,13.60
2018-09-23T08:21:10.584Z,13.60
2018-09-23T08:22:13.886Z,13.60
2018-09-23T08:23:17.296Z,13.60
2018-09-23T08:24:20.555Z,13.60
2018-09-23T08:25:23.977Z,13.50
2018-09-23T08:26:27.310Z,13.50
2018-09-23T08:27:30.586Z,13.50
2018-09-23T08:28:33.875Z,13.50
2018-09-23T08:29:37.166Z,13.60
2018-09-23T08:30:40.518Z,13.60
2018-09-23T08:31:43.816Z,13.70
2018-09-23T08:32:47.177Z,13.70
2018-09-23T08:33:50.451Z,13.70
2018-09-23T08:34:53.746Z,13.80
2018-09-23T08:35:57.089Z,13.80
2018-09-23T08:37:00.397Z,13.90
2018-09-23T08:38:04.587Z,13.80
2018-09-23T08:39:07.915Z,13.80
2018-09-23T08:40:11.225Z,13.80
2018-09-23T08:41:14.573Z,13.90
2018-09-23T08:42:17.906Z,13.80
2018-09-23T08:43:21.235Z,13.90
2018-09-23T08:44:24.541Z,13.90
2018-09-23T08:45:27.846Z,14.00
2018-09-23T08:46:31.187Z,14.10
2018-09-23T08:47:34.489Z,14.10
2018-09-23T08:48:37.784Z,14.10
2018-09-23T08:49:41.078Z,14.10
2018-09-23T08:50:44.405Z,14.10
2018-09-23T08:51:47.755Z,14.10
2018-09-23T08:52:51.068Z,14.00
2018-09-23T08:53:54.363Z,14.00
2018-09-23T08:56:07.312Z,13.90
2018-09-23T08:57:10.711Z,13.80
2018-09-23T08:58:14.031Z,13.80
2018-09-23T08:59:17.353Z,13.90
2018-09-23T09:00:20.672Z,13.90
2018-09-23T09:01:23.980Z,14.00
2018-09-23T09:02:27.313Z,14.00
2018-09-23T09:03:30.654Z,14.00
2018-09-23T09:04:34.019Z,14.10
2018-09-23T09:05:37.331Z,14.10
2018-09-23T09:06:40.632Z,14.20
2018-09-23T09:07:43.951Z,14.20
2018-09-23T09:08:47.250Z,14.10
2018-09-23T09:09:50.599Z,14.20
2018-09-23T09:10:53.887Z,14.10
2018-09-23T09:11:57.214Z,14.10
2018-09-23T09:13:00.567Z,14.10
2018-09-23T09:14:03.883Z,14.00
2018-09-23T09:15:07.234Z,13.90
2018-09-23T09:16:10.557Z,13.90
2018-09-23T09:17:13.870Z,14.00
2018-09-23T09:18:17.269Z,13.90
2018-09-23T09:19:20.655Z,14.00
2018-09-23T09:20:24.007Z,14.00
2018-09-23T09:21:27.342Z,14.00
2018-09-23T09:22:30.661Z,14.10
2018-09-23T09:23:34.034Z,14.10
2018-09-23T09:24:37.367Z,14.10
2018-09-23T09:25:40.694Z,14.00
2018-09-23T09:26:44.066Z,14.10
2018-09-23T09:27:47.348Z,14.00
2018-09-23T09:28:50.696Z,13.90
2018-09-23T09:29:54.045Z,13.90
2018-09-23T09:30:57.371Z,13.90
2018-09-23T09:32:00.687Z,13.90
2018-09-23T09:33:04.086Z,14.00
2018-09-23T09:34:07.411Z,14.00
2018-09-23T09:35:10.771Z,14.10
2018-09-23T09:36:14.082Z,14.10
2018-09-23T09:37:17.399Z,14.10
2018-09-23T09:38:20.810Z,14.20
2018-09-23T09:39:24.100Z,14.10
2018-09-23T09:40:27.418Z,14.10
2018-09-23T09:41:30.727Z,14.00
2018-09-23T09:42:34.052Z,13.90
2018-09-23T09:43:37.439Z,13.80
2018-09-23T09:44:40.819Z,13.80
2018-09-23T09:45:44.143Z,13.90
2018-09-23T09:46:47.461Z,13.90
2018-09-23T09:47:50.787Z,13.80
2018-09-23T09:48:54.156Z,13.80
2018-09-23T09:49:57.615Z,13.90
2018-09-23T09:51:00.986Z,13.80
2018-09-23T09:52:04.351Z,13.80
2018-09-23T09:53:07.696Z,13.70
2018-09-23T09:54:11.024Z,13.80
2018-09-23T09:55:14.362Z,13.80
2018-09-23T09:56:22.992Z,13.90
2018-09-23T09:57:26.322Z,13.80
2018-09-23T09:58:29.649Z,13.70
2018-09-23T09:59:33.011Z,13.70
2018-09-23T10:00:36.539Z,13.80
2018-09-23T10:01:39.876Z,13.80
2018-09-23T10:02:43.191Z,13.80
2018-09-23T10:03:46.578Z,13.90
2018-09-23T10:04:49.895Z,13.90
2018-09-23T10:05:53.207Z,13.90
2018-09-23T10:06:56.525Z,13.90
2018-09-23T10:07:59.890Z,14.00
2018-09-23T10:09:04.310Z,14.00
2018-09-23T10:10:07.660Z,14.00
2018-09-23T10:11:11.035Z,14.00
2018-09-23T10:12:14.363Z,14.00
2018-09-23T10:13:17.679Z,14.00
2018-09-23T10:14:21.027Z,14.00
2018-09-23T10:15:24.423Z,13.90
2018-09-23T10:16:27.738Z,13.90
2018-09-23T10:17:31.116Z,13.90
2018-09-23T10:18:34.457Z,13.90
2018-09-23T10:19:37.785Z,14.00
2018-09-23T10:20:41.096Z,14.00
2018-09-23T10:21:44.430Z,13.90
2018-09-23T10:22:47.913Z,13.90
2018-09-23T10:23:51.196Z,13.90
2018-09-23T10:24:54.534Z,13.90
2018-09-23T10:25:57.860Z,13.90
2018-09-23T10:27:01.190Z,13.90
2018-09-23T10:28:04.543Z,13.80
2018-09-23T10:29:07.883Z,13.80
2018-09-23T10:30:11.428Z,13.80
2018-09-23T10:31:14.876Z,13.90
2018-09-23T10:32:18.187Z,13.90
2018-09-23T10:33:21.531Z,13.90
2018-09-23T10:34:24.875Z,14.00
2018-09-23T10:35:28.224Z,14.10
2018-09-23T10:36:31.535Z,14.20
2018-09-23T10:37:34.892Z,14.20
2018-09-23T10:38:38.342Z,14.20
2018-09-23T10:39:41.651Z,14.30
2018-09-23T10:40:45.043Z,14.20
2018-09-23T10:41:48.406Z,14.30
2018-09-23T10:42:51.798Z,14.20
2018-09-23T10:43:55.149Z,14.30
2018-09-23T10:44:58.463Z,14.10
2018-09-23T10:46:01.869Z,14.10
2018-09-23T10:47:05.207Z,14.10
2018-09-23T10:48:08.571Z,14.20
2018-09-23T10:49:11.904Z,14.20
2018-09-23T10:50:15.294Z,14.20
2018-09-23T10:51:18.626Z,14.20
2018-09-23T10:52:21.974Z,14.30
2018-09-23T10:53:25.313Z,14.30
2018-09-23T10:54:28.633Z,14.40
2018-09-23T10:55:32.079Z,14.40
2018-09-23T10:56:35.398Z,14.40
2018-09-23T10:57:38.813Z,14.40
2018-09-23T10:58:42.179Z,14.40
2018-09-23T10:59:45.651Z,14.40
2018-09-23T11:00:48.973Z,14.40
2018-09-23T11:01:52.511Z,14.40
2018-09-23T11:02:57.097Z,14.40
2018-09-23T11:04:00.545Z,14.40
2018-09-23T11:05:03.790Z,14.40
2018-09-23T11:06:07.490Z,14.30
2018-09-23T11:07:11.028Z,14.20
2018-09-23T11:08:14.366Z,14.00
2018-09-23T11:09:17.765Z,14.00
2018-09-23T11:10:21.092Z,14.10
2018-09-23T11:11:24.484Z,14.10
2018-09-23T11:12:27.813Z,14.10
2018-09-23T11:13:31.157Z,14.10
2018-09-23T11:14:34.518Z,14.10
2018-09-23T11:15:37.823Z,14.10
2018-09-23T11:16:41.144Z,14.10
2018-09-23T11:17:44.511Z,14.20
2018-09-23T11:18:47.832Z,14.10
2018-09-23T11:19:51.201Z,14.10
2018-09-23T11:20:54.509Z,14.10
2018-09-23T11:21:57.827Z,14.20
2018-09-23T11:23:01.138Z,14.10
2018-09-23T11:24:04.476Z,14.10
2018-09-23T11:25:07.847Z,14.00
2018-09-23T11:26:11.165Z,14.00
2018-09-23T11:27:14.490Z,13.90
2018-09-23T11:28:17.828Z,13.90
2018-09-23T11:29:21.154Z,13.90
2018-09-23T11:30:24.503Z,13.80
2018-09-23T11:31:27.824Z,13.70
2018-09-23T11:32:31.130Z,13.70
2018-09-23T11:33:34.627Z,13.70
2018-09-23T11:34:37.956Z,13.70
2018-09-23T11:35:41.305Z,13.70
2018-09-23T11:36:44.615Z,13.70
2018-09-23T11:37:47.928Z,13.80
2018-09-23T11:38:51.236Z,13.80
2018-09-23T11:39:54.561Z,13.90
2018-09-23T11:40:57.902Z,13.90
2018-09-23T11:42:01.207Z,13.90
2018-09-23T11:43:04.527Z,13.80
2018-09-23T11:44:08.086Z,13.80
2018-09-23T11:45:11.432Z,13.80
2018-09-23T11:46:14.841Z,13.80
2018-09-23T11:47:18.150Z,13.80
2018-09-23T11:48:21.483Z,13.90
2018-09-23T11:49:24.791Z,13.90
2018-09-23T11:50:28.160Z,13.90
2018-09-23T11:51:31.509Z,13.90
2018-09-23T11:52:34.840Z,13.90
2018-09-23T11:53:38.159Z,13.90
2018-09-23T11:54:41.499Z,13.90
2018-09-23T11:55:44.897Z,13.90
2018-09-23T11:56:48.210Z,13.80
2018-09-23T11:57:51.552Z,13.80
2018-09-23T11:58:54.891Z,13.70
2018-09-23T11:59:58.368Z,13.70
2018-09-23T12:01:01.691Z,13.70
2018-09-23T12:02:05.594Z,13.60
2018-09-23T12:03:08.936Z,13.70
2018-09-23T12:04:12.282Z,13.60
2018-09-23T12:05:15.652Z,13.60
2018-09-23T12:06:18.979Z,13.60
2018-09-23T12:07:22.296Z,13.60
2018-09-23T12:08:25.651Z,13.60
2018-09-23T12:09:29.003Z,13.50
2018-09-23T12:10:32.408Z,13.50
2018-09-23T12:11:35.758Z,13.50
2018-09-23T12:12:39.130Z,13.50
2018-09-23T12:13:42.443Z,13.50
2018-09-23T12:14:45.792Z,13.50
2018-09-23T12:15:49.120Z,13.50
2018-09-23T12:16:52.435Z,13.50
2018-09-23T12:17:55.797Z,13.50
2018-09-23T12:18:59.149Z,13.50
2018-09-23T12:20:02.475Z,13.40
2018-09-23T12:21:05.823Z,13.40
2018-09-23T12:22:09.341Z,13.30
2018-09-23T12:23:19.479Z,13.20
2018-09-23T12:24:22.876Z,13.30
2018-09-23T12:25:26.257Z,13.30
2018-09-23T12:26:29.555Z,13.30
2018-09-23T12:27:32.923Z,13.30
2018-09-23T12:28:36.458Z,13.30
2018-09-23T12:29:39.859Z,13.30
2018-09-23T12:30:43.140Z,13.30
2018-09-23T12:31:46.458Z,13.20
2018-09-23T12:32:49.831Z,13.10
2018-09-23T12:33:53.154Z,13.10
2018-09-23T12:34:56.463Z,13.10
2018-09-23T12:36:03.766Z,13.10
2018-09-23T12:37:07.144Z,13.10
2018-09-23T12:38:10.533Z,13.10
2018-09-23T12:39:20.280Z,13.20
2018-09-23T12:40:23.595Z,13.10
2018-09-23T12:41:26.916Z,13.10
2018-09-23T12:42:30.273Z,13.10
2018-09-23T12:43:33.602Z,13.10
2018-09-23T12:44:36.952Z,13.00
2018-09-23T12:45:40.287Z,12.90
2018-09-23T12:46:43.601Z,12.80
2018-09-23T12:47:46.947Z,12.70
2018-09-23T12:48:50.255Z,12.80
2018-09-23T12:49:53.580Z,12.80
2018-09-23T12:50:56.931Z,12.80
2018-09-23T12:52:00.226Z,12.80
2018-09-23T12:53:03.595Z,12.70
2018-09-23T12:54:06.929Z,12.60
2018-09-23T12:55:10.250Z,12.60
2018-09-23T12:56:13.564Z,12.60
2018-09-23T12:57:16.906Z,12.60
2018-09-23T12:58:20.268Z,12.50
2018-09-23T12:59:23.604Z,12.50
2018-09-23T13:00:27.162Z,12.50
2018-09-23T13:01:30.480Z,12.50
2018-09-23T13:02:33.886Z,12.50
2018-09-23T13:03:37.219Z,12.50
2018-09-23T13:04:40.579Z,12.50
2018-09-23T13:05:43.898Z,12.60
2018-09-23T13:06:47.187Z,12.50
2018-09-23T13:07:50.526Z,12.60
2018-09-23T13:08:53.872Z,12.60
2018-09-23T13:09:57.218Z,12.60
2018-09-23T13:11:00.525Z,12.70
2018-09-23T13:12:03.860Z,12.70
2018-09-23T13:13:07.238Z,12.70
2018-09-23T13:14:10.635Z,12.70
2018-09-23T13:15:13.957Z,12.70
2018-09-23T13:16:17.271Z,12.80
2018-09-23T13:17:20.599Z,12.80
2018-09-23T13:18:23.931Z,12.60
2018-09-23T13:19:27.339Z,12.70
2018-09-23T13:20:30.664Z,12.70
2018-09-23T13:21:34.026Z,12.80
2018-09-23T13:22:37.343Z,12.80
2018-09-23T13:23:40.666Z,12.80
2018-09-23T13:24:44.010Z,12.90
2018-09-23T13:25:47.325Z,12.90
2018-09-23T13:26:50.656Z,12.90
2018-09-23T13:27:54.025Z,12.90
2018-09-23T13:28:57.403Z,12.90
2018-09-23T13:30:00.722Z,13.00
2018-09-23T13:31:04.043Z,13.00
2018-09-23T13:32:07.607Z,13.10
2018-09-23T13:33:11.014Z,13.10
2018-09-23T13:34:14.347Z,13.10
2018-09-23T13:35:17.671Z,13.10
2018-09-23T13:36:20.986Z,13.10
2018-09-23T13:37:24.322Z,13.10